Time;durP1;ratioP1;P1;durP2;ratioP2;P2;SDS_P1;SDS_P2;PMS_P1;PMS_P2;Temp;Humidity;BMP_temperature;BMP_pressure;BME280_temperature;BME280_humidity;BME280_pressure;Samples;Min_cycle;Max_cycle;Signal;HPM_P1;HPM_P2
2022/06/29 00:02:03;;;;;;;2.17;1.70;;;18.80;99.90;;;;;;5156418;27;20635;-53
2022/06/29 00:04:29;;;;;;;3.40;2.13;;;18.70;99.90;;;;;;5156501;27;20171;-53
2022/06/29 00:06:54;;;;;;;3.38;2.10;;;18.70;99.90;;;;;;5156342;27;20178;-53
2022/06/29 00:09:20;;;;;;;3.22;1.80;;;18.70;99.90;;;;;;5156783;27;20159;-53
2022/06/29 00:11:46;;;;;;;2.67;2.15;;;18.80;99.90;;;;;;5156296;27;20219;-53
2022/06/29 00:14:11;;;;;;;3.78;2.05;;;18.70;99.90;;;;;;5156209;27;20159;-53
2022/06/29 00:16:37;;;;;;;5.40;2.10;;;18.50;99.90;;;;;;5156226;27;20167;-53
2022/06/29 00:19:02;;;;;;;3.28;2.25;;;18.60;99.90;;;;;;5156141;27;20195;-53
2022/06/29 00:21:28;;;;;;;2.55;1.63;;;18.60;99.90;;;;;;5156126;27;20167;-53
2022/06/29 00:23:54;;;;;;;6.75;2.00;;;18.60;99.90;;;;;;5155949;27;20229;-53
2022/06/29 00:26:19;;;;;;;3.65;1.80;;;18.60;99.90;;;;;;5156457;27;20504;-53
2022/06/29 00:28:45;;;;;;;2.53;1.77;;;18.60;99.90;;;;;;5155994;27;20246;-53
2022/06/29 00:31:10;;;;;;;2.30;1.80;;;18.40;99.90;;;;;;5155922;27;20654;-53
2022/06/29 00:33:36;;;;;;;4.18;2.15;;;18.30;99.90;;;;;;5155890;27;20306;-53
2022/06/29 00:36:01;;;;;;;2.90;1.90;;;18.30;99.90;;;;;;5155878;27;20159;-53
2022/06/29 00:38:27;;;;;;;2.15;1.95;;;18.30;99.90;;;;;;5155716;27;20171;-53
2022/06/29 00:40:52;;;;;;;2.83;1.58;;;18.10;99.90;;;;;;5155799;27;20167;-53
2022/06/29 00:43:18;;;;;;;2.13;1.80;;;18.20;99.90;;;;;;5155975;27;20563;-53
2022/06/29 00:45:44;;;;;;;2.85;1.70;;;18.20;99.90;;;;;;5155620;27;20159;-53
2022/06/29 00:48:09;;;;;;;5.93;1.60;;;18.20;99.90;;;;;;5155839;27;20657;-53
2022/06/29 00:50:38;;;;;;;2.80;1.55;;;18.20;99.90;;;;;;5155505;27;20600;-53
2022/06/29 00:53:05;;;;;;;4.45;2.63;;;18.30;99.90;;;;;;5155398;27;20168;-53
2022/06/29 00:55:34;;;;;;;2.08;1.80;;;18.20;99.90;;;;;;5155454;27;20198;-53
2022/06/29 00:58:05;;;;;;;2.25;1.77;;;18.10;99.90;;;;;;5155458;27;20201;-53
2022/06/29 01:00:31;;;;;;;1.65;1.55;;;18.10;99.90;;;;;;5155599;27;20179;-53
2022/06/29 01:02:59;;;;;;;2.90;1.85;;;18.10;99.90;;;;;;5155187;27;20691;-53
2022/06/29 01:05:26;;;;;;;3.97;1.90;;;18.10;99.90;;;;;;5155377;27;20186;-53
2022/06/29 01:07:52;;;;;;;2.67;1.95;;;18.10;99.90;;;;;;5136934;27;20163;-53
2022/06/29 01:10:19;;;;;;;2.05;1.80;;;18.00;99.90;;;;;;5155655;27;20170;-53
2022/06/29 01:12:48;;;;;;;3.22;2.03;;;18.00;99.90;;;;;;5155048;27;20164;-53
2022/06/29 01:15:13;;;;;;;2.75;1.73;;;18.10;99.90;;;;;;5155083;27;20191;-54
2022/06/29 01:17:39;;;;;;;2.05;1.85;;;18.00;99.90;;;;;;5155028;27;20602;-53
2022/06/29 01:20:05;;;;;;;2.28;1.88;;;18.00;99.90;;;;;;5155183;27;20167;-53
2022/06/29 01:22:31;;;;;;;2.70;1.80;;;17.90;99.90;;;;;;5154216;27;20190;-53
2022/06/29 01:24:57;;;;;;;5.78;2.10;;;17.90;99.90;;;;;;5154685;27;20627;-53
2022/06/29 01:27:24;;;;;;;7.50;1.90;;;17.80;99.90;;;;;;5154971;27;20242;-53
2022/06/29 01:29:50;;;;;;;2.65;1.80;;;17.80;99.90;;;;;;5155241;27;20171;-53
2022/06/29 01:32:16;;;;;;;4.57;1.92;;;17.70;99.90;;;;;;5154914;27;20196;-53
2022/06/29 01:34:43;;;;;;;3.65;1.92;;;17.70;99.90;;;;;;5154851;27;20208;-53
2022/06/29 01:37:09;;;;;;;2.67;1.63;;;17.80;99.90;;;;;;5154613;27;20192;-53
2022/06/29 01:39:36;;;;;;;2.92;2.17;;;17.80;99.90;;;;;;5154544;27;20175;-53
2022/06/29 01:42:03;;;;;;;3.70;1.88;;;17.60;99.90;;;;;;5154691;27;20635;-53
2022/06/29 01:44:28;;;;;;;5.63;2.10;;;17.60;99.90;;;;;;5154744;27;20190;-53
2022/06/29 01:46:54;;;;;;;4.00;1.70;;;17.60;99.90;;;;;;5154347;27;20619;-53
2022/06/29 01:49:20;;;;;;;2.53;1.80;;;17.60;99.90;;;;;;5154961;27;20216;-53
2022/06/29 01:51:45;;;;;;;4.32;1.80;;;17.70;99.90;;;;;;5154043;27;20696;-53
2022/06/29 01:54:11;;;;;;;3.42;2.25;;;17.60;99.90;;;;;;5154151;27;21085;-53
2022/06/29 01:56:37;;;;;;;2.30;1.92;;;17.60;99.90;;;;;;5154230;27;20548;-53
2022/06/29 01:59:03;;;;;;;2.33;1.85;;;17.60;99.90;;;;;;5154483;27;20163;-53
2022/06/29 02:01:28;;;;;;;1.95;1.73;;;17.60;99.90;;;;;;5154121;27;20155;-53
2022/06/29 02:03:54;;;;;;;3.45;2.17;;;17.70;99.90;;;;;;5154452;27;20203;-53
2022/06/29 02:06:21;;;;;;;2.58;1.70;;;17.60;99.90;;;;;;5154375;27;20194;-53
2022/06/29 02:08:47;;;;;;;2.63;1.63;;;17.60;99.90;;;;;;5154048;27;20159;-53
2022/06/29 02:11:12;;;;;;;2.38;1.80;;;17.60;99.90;;;;;;5153989;27;20163;-53
2022/06/29 02:13:38;;;;;;;3.92;1.70;;;17.50;99.90;;;;;;5153825;27;20167;-53
2022/06/29 02:16:04;;;;;;;4.28;1.95;;;17.50;99.90;;;;;;5154139;27;20163;-53
2022/06/29 02:18:30;;;;;;;3.17;1.50;;;17.50;99.90;;;;;;5154130;27;20239;-53
2022/06/29 02:20:55;;;;;;;5.03;2.13;;;17.50;99.90;;;;;;5153803;27;20174;-54
2022/06/29 02:23:21;;;;;;;2.80;1.80;;;17.40;99.90;;;;;;5154190;27;20207;-53
2022/06/29 02:25:48;;;;;;;4.45;1.80;;;17.40;99.90;;;;;;5153852;27;20211;-53
2022/06/29 02:28:14;;;;;;;5.00;2.03;;;17.30;99.90;;;;;;5153638;27;20175;-53
2022/06/29 02:36:07;;;;;;;2.85;1.70;;;17.10;99.90;;;;;;5153355;27;20194;-53
2022/06/29 02:38:34;;;;;;;6.05;1.83;;;17.00;99.90;;;;;;5153845;27;20175;-53
2022/06/29 02:40:59;;;;;;;5.05;1.83;;;16.80;99.90;;;;;;5153523;27;20171;-53
2022/06/29 02:43:25;;;;;;;4.38;1.60;;;16.80;99.90;;;;;;5153488;27;20207;-52
2022/06/29 02:45:51;;;;;;;3.20;1.92;;;16.80;99.90;;;;;;5153851;27;20674;-53
2022/06/29 02:48:16;;;;;;;3.25;1.75;;;16.70;99.90;;;;;;5153352;27;20522;-53
2022/06/29 02:50:42;;;;;;;5.15;1.83;;;16.70;99.90;;;;;;5153562;27;20164;-53
2022/06/29 02:53:08;;;;;;;5.50;2.15;;;16.70;99.90;;;;;;5153464;27;20164;-53
2022/06/29 02:55:33;;;;;;;4.07;2.25;;;16.70;99.90;;;;;;5153452;27;20644;-53
2022/06/29 02:57:59;;;;;;;3.10;1.77;;;16.80;99.90;;;;;;5153415;27;20171;-53
2022/06/29 03:00:24;;;;;;;4.72;2.05;;;16.70;99.90;;;;;;5153321;27;20195;-53
2022/06/29 03:02:50;;;;;;;2.92;2.10;;;16.80;99.90;;;;;;5153890;27;20210;-53
2022/06/29 03:05:16;;;;;;;5.13;2.08;;;16.90;99.90;;;;;;5153374;27;20191;-53
2022/06/29 03:07:41;;;;;;;7.63;2.30;;;16.90;99.90;;;;;;5153219;27;20188;-53
2022/06/29 03:10:07;;;;;;;6.30;2.13;;;16.90;99.90;;;;;;5153171;27;20160;-53
2022/06/29 03:12:33;;;;;;;6.30;2.50;;;16.90;99.90;;;;;;5153548;27;20171;-53
2022/06/29 03:14:59;;;;;;;3.38;1.90;;;16.90;99.90;;;;;;5153256;27;20252;-53
2022/06/29 03:17:25;;;;;;;3.40;2.15;;;16.90;99.90;;;;;;5153260;27;20170;-53
2022/06/29 03:19:50;;;;;;;4.05;2.35;;;17.00;99.90;;;;;;5153432;27;20522;-53
2022/06/29 03:22:16;;;;;;;5.95;1.88;;;17.00;99.90;;;;;;5153111;27;20296;-53
2022/06/29 03:24:41;;;;;;;7.30;2.30;;;17.00;99.90;;;;;;5152918;27;20207;-53
2022/06/29 03:27:07;;;;;;;6.47;1.90;;;17.00;99.90;;;;;;5153181;27;20164;-53
2022/06/29 03:29:33;;;;;;;7.38;1.70;;;17.00;99.90;;;;;;5153109;27;20231;-53
2022/06/29 03:31:58;;;;;;;3.92;2.10;;;16.90;99.90;;;;;;5152947;27;20160;-53
2022/06/29 03:34:24;;;;;;;3.88;2.10;;;16.90;99.90;;;;;;5153009;27;20169;-53
2022/06/29 03:36:49;;;;;;;7.53;2.30;;;16.90;99.90;;;;;;5153279;27;20201;-53
2022/06/29 03:39:15;;;;;;;3.70;2.10;;;16.90;99.90;;;;;;5153062;27;20171;-53
2022/06/29 03:41:41;;;;;;;10.57;2.95;;;17.00;99.90;;;;;;5152886;27;20199;-53
2022/06/29 03:44:06;;;;;;;8.10;2.70;;;17.00;99.90;;;;;;5153383;27;20256;-53
2022/06/29 03:46:32;;;;;;;3.58;2.13;;;16.90;99.90;;;;;;5156730;27;20238;-53
2022/06/29 03:48:58;;;;;;;5.63;2.22;;;16.90;99.90;;;;;;5156783;27;20175;-53
2022/06/29 03:51:23;;;;;;;3.50;2.05;;;16.90;99.90;;;;;;5156696;27;20242;-53
2022/06/29 03:53:49;;;;;;;2.63;1.85;;;16.70;99.90;;;;;;5156869;27;20175;-53
2022/06/29 03:56:15;;;;;;;7.90;2.10;;;16.80;99.90;;;;;;5156573;27;20192;-53
2022/06/29 03:58:40;;;;;;;4.03;2.47;;;16.70;99.90;;;;;;5156645;27;20242;-53
2022/06/29 04:01:06;;;;;;;4.43;2.33;;;16.80;99.90;;;;;;5156455;27;20178;-53
2022/06/29 04:03:32;;;;;;;4.18;1.98;;;16.80;99.90;;;;;;5156467;27;20202;-53
2022/06/29 04:05:57;;;;;;;9.50;2.50;;;17.00;99.90;;;;;;5156456;27;20531;-53
2022/06/29 04:08:23;;;;;;;9.88;2.38;;;16.90;99.90;;;;;;5156371;27;20170;-53
2022/06/29 04:10:48;;;;;;;4.93;2.30;;;17.00;99.90;;;;;;5156680;27;20163;-53
2022/06/29 04:13:14;;;;;;;5.95;2.10;;;17.00;99.90;;;;;;5156317;27;20199;-53
2022/06/29 04:15:40;;;;;;;7.28;2.60;;;17.10;99.90;;;;;;5156121;27;20577;-53
2022/06/29 04:18:06;;;;;;;9.95;2.33;;;17.20;99.90;;;;;;5156253;27;20163;-53
2022/06/29 04:23:16;;;;;;;4.28;2.05;;;17.10;99.90;;;;;;5156005;27;20194;-53
2022/06/29 04:25:41;;;;;;;8.10;2.60;;;17.30;99.90;;;;;;5155851;27;20218;-53
2022/06/29 04:28:07;;;;;;;4.85;2.60;;;17.30;99.90;;;;;;5156010;27;20212;-53
2022/06/29 04:30:33;;;;;;;4.90;2.55;;;17.30;99.90;;;;;;5156036;27;20279;-53
2022/06/29 04:32:58;;;;;;;6.40;2.50;;;17.40;99.90;;;;;;5155875;27;20190;-53
2022/06/29 04:35:24;;;;;;;3.72;2.40;;;17.40;99.90;;;;;;5155967;27;20641;-53
2022/06/29 04:37:50;;;;;;;6.60;2.30;;;17.60;99.90;;;;;;5156407;27;20177;-53
2022/06/29 04:40:15;;;;;;;5.53;2.28;;;17.60;99.90;;;;;;5155910;27;20170;-53
2022/06/29 04:42:41;;;;;;;5.60;2.83;;;17.60;99.90;;;;;;5155608;27;20203;-53
2022/06/29 04:46:19;;;;;;;3.92;2.25;;;17.60;99.90;;;;;;5155705;27;20546;-53
2022/06/29 04:47:52;;;;;;;8.07;2.40;;;17.70;99.90;;;;;;5155421;27;20174;-53
2022/06/29 04:50:18;;;;;;;7.80;2.85;;;17.70;99.90;;;;;;5155709;27;20163;-53
2022/06/29 04:52:43;;;;;;;9.70;3.08;;;18.00;99.90;;;;;;5155282;27;20207;-54
2022/06/29 04:55:09;;;;;;;9.35;2.40;;;18.10;99.90;;;;;;5155296;27;20159;-53
2022/06/29 04:57:35;;;;;;;9.13;3.00;;;18.10;99.90;;;;;;5154834;27;20163;-53
2022/06/29 05:00:01;;;;;;;10.32;2.38;;;18.10;99.90;;;;;;5155309;27;20653;-53
2022/06/29 05:02:27;;;;;;;5.82;2.40;;;18.20;99.90;;;;;;5154897;27;20167;-53
2022/06/29 05:04:52;;;;;;;8.18;2.42;;;18.00;99.90;;;;;;5154998;27;20160;-53
2022/06/29 05:07:18;;;;;;;3.10;2.30;;;18.00;99.90;;;;;;5155235;27;20179;-53
2022/06/29 05:09:45;;;;;;;3.58;2.92;;;17.90;99.90;;;;;;5154968;27;20163;-53
2022/06/29 05:12:11;;;;;;;5.55;2.30;;;17.90;99.90;;;;;;5155260;27;20163;-53
2022/06/29 05:14:36;;;;;;;9.57;2.92;;;18.00;99.90;;;;;;5154763;27;20505;-54
2022/06/29 05:17:02;;;;;;;5.90;2.80;;;18.10;99.90;;;;;;5136785;27;20216;-54
2022/06/29 05:19:28;;;;;;;7.97;3.33;;;18.30;99.90;;;;;;5154667;27;20585;-54
2022/06/29 05:21:54;;;;;;;5.68;3.03;;;18.40;99.90;;;;;;5154555;27;20167;-54
2022/06/29 05:24:19;;;;;;;5.13;3.03;;;18.50;99.90;;;;;;5136464;27;20582;-55
2022/06/29 05:26:45;;;;;;;7.40;2.60;;;18.60;99.90;;;;;;5154821;27;20212;-55
2022/06/29 05:29:10;;;;;;;6.57;2.88;;;18.70;99.90;;;;;;5136685;27;20172;-55
2022/06/29 05:31:36;;;;;;;5.60;3.20;;;18.80;99.90;;;;;;5154748;27;20164;-55
2022/06/29 05:34:02;;;;;;;5.47;3.30;;;18.80;99.90;;;;;;5154753;27;20498;-55
2022/06/29 05:36:27;;;;;;;4.82;3.08;;;18.80;99.90;;;;;;5154640;27;20246;-55
2022/06/29 05:38:53;;;;;;;5.40;2.70;;;19.00;99.90;;;;;;5154227;27;20160;-55
2022/06/29 05:41:18;;;;;;;2.70;2.35;;;19.00;99.90;;;;;;5154839;27;20178;-55
2022/06/29 05:43:49;;;;;;;7.18;2.95;;;19.10;99.90;;;;;;5154139;27;20746;-55
2022/06/29 05:46:15;;;;;;;6.47;2.90;;;19.20;99.90;;;;;;5154725;27;20168;-54
2022/06/29 05:48:41;;;;;;;6.95;2.92;;;19.30;99.90;;;;;;5154502;27;20159;-55
2022/06/29 05:51:07;;;;;;;7.68;2.90;;;19.40;99.90;;;;;;5154461;27;20167;-55
2022/06/29 05:53:32;;;;;;;5.45;2.63;;;19.40;99.90;;;;;;5135458;27;20163;-55
2022/06/29 05:55:58;;;;;;;6.18;2.90;;;19.50;99.90;;;;;;5154240;27;20194;-55
2022/06/29 05:58:24;;;;;;;7.57;3.13;;;19.70;99.90;;;;;;5152968;27;20174;-49
2022/06/29 06:00:51;;;;;;;8.75;2.78;;;19.80;99.90;;;;;;5153280;27;20163;-54
2022/06/29 06:03:17;;;;;;;6.88;3.05;;;19.90;99.90;;;;;;5153287;27;20199;-56
2022/06/29 06:05:43;;;;;;;5.47;2.88;;;20.10;99.90;;;;;;5152870;27;20167;-64
2022/06/29 06:08:09;;;;;;;8.82;3.42;;;20.20;99.90;;;;;;5152423;27;20182;-55
2022/06/29 06:10:35;;;;;;;8.63;3.22;;;20.20;99.90;;;;;;5153051;27;20175;-55
2022/06/29 06:13:02;;;;;;;4.43;2.90;;;20.20;99.90;;;;;;5152622;27;20173;-55
2022/06/29 06:15:28;;;;;;;5.85;3.20;;;20.30;99.90;;;;;;5152667;27;20194;-55
2022/06/29 06:17:54;;;;;;;7.97;2.85;;;20.40;99.90;;;;;;5152741;27;20159;-55
2022/06/29 06:20:20;;;;;;;8.30;3.38;;;20.40;99.90;;;;;;5152743;27;20244;-55
2022/06/29 06:22:46;;;;;;;6.13;3.00;;;20.40;99.90;;;;;;5152368;27;20291;-55
2022/06/29 06:25:12;;;;;;;8.43;3.33;;;20.40;99.90;;;;;;5152515;27;20302;-55
2022/06/29 06:27:37;;;;;;;7.60;3.45;;;20.30;99.90;;;;;;5134176;27;20658;-55
2022/06/29 06:30:03;;;;;;;3.78;2.88;;;20.20;99.90;;;;;;5152525;27;20242;-53
2022/06/29 06:32:29;;;;;;;8.70;3.97;;;20.20;99.90;;;;;;5134000;27;20166;-53
2022/06/29 06:34:54;;;;;;;4.95;3.00;;;20.10;99.90;;;;;;5152335;27;20182;-53
2022/06/29 06:37:20;;;;;;;4.35;3.20;;;20.20;99.90;;;;;;5152597;27;20175;-53
2022/06/29 06:41:21;;;;;;;4.32;3.03;;;20.20;99.90;;;;;;5152265;27;20638;-54
2022/06/29 06:42:31;;;;;;;7.32;3.42;;;20.20;99.90;;;;;;5152025;27;20209;-54
2022/06/29 06:44:57;;;;;;;5.88;3.70;;;20.20;99.90;;;;;;5152067;27;20171;-54
2022/06/29 06:47:22;;;;;;;4.25;3.40;;;20.10;99.90;;;;;;5151881;27;20726;-56
2022/06/29 06:49:48;;;;;;;3.72;3.38;;;20.00;99.90;;;;;;5152548;27;20167;-54
2022/06/29 06:52:16;;;;;;;7.00;3.10;;;20.00;99.90;;;;;;5152167;27;20159;-54
2022/06/29 06:54:43;;;;;;;4.05;3.22;;;20.10;99.90;;;;;;5152200;27;20201;-54
2022/06/29 06:57:08;;;;;;;14.23;3.65;;;20.10;99.90;;;;;;5151897;27;20175;-54
2022/06/29 06:59:34;;;;;;;5.53;3.08;;;20.10;99.90;;;;;;5151987;27;20250;-54
2022/06/29 07:02:00;;;;;;;5.72;3.40;;;20.20;99.90;;;;;;5152021;27;20163;-54
2022/06/29 07:04:26;;;;;;;6.18;2.92;;;20.10;99.90;;;;;;5151042;27;20620;-54
2022/06/29 07:06:52;;;;;;;8.20;3.42;;;20.20;99.90;;;;;;5152062;27;20190;-55
2022/06/29 07:09:18;;;;;;;6.55;3.38;;;20.20;99.90;;;;;;5152209;27;20531;-54
2022/06/29 07:11:44;;;;;;;7.68;3.20;;;20.10;99.90;;;;;;5152097;27;20601;-54
2022/06/29 07:14:09;;;;;;;6.38;3.72;;;20.20;99.90;;;;;;5152347;27;20175;-54
2022/06/29 07:16:35;;;;;;;6.75;3.47;;;20.20;99.90;;;;;;5151892;27;20159;-54
2022/06/29 07:19:01;;;;;;;7.03;3.50;;;20.30;99.90;;;;;;5152050;27;20712;-54
2022/06/29 07:21:26;;;;;;;7.47;3.05;;;20.20;99.90;;;;;;5156073;27;20629;-54
2022/06/29 07:23:52;;;;;;;6.72;3.22;;;20.20;99.90;;;;;;5149331;27;20195;-54
2022/06/29 07:26:17;;;;;;;7.30;3.45;;;20.30;99.90;;;;;;5135198;27;20172;-54
2022/06/29 07:28:43;;;;;;;10.02;3.92;;;20.20;99.90;;;;;;5116814;27;20534;-54
2022/06/29 07:31:09;;;;;;;4.95;3.53;;;20.30;99.90;;;;;;5135196;27;20208;-54
2022/06/29 07:33:34;;;;;;;8.18;3.72;;;20.50;99.90;;;;;;5134835;27;20184;-55
2022/06/29 07:36:00;;;;;;;6.13;3.30;;;20.50;99.90;;;;;;5134839;27;20202;-54
2022/06/29 07:38:25;;;;;;;5.13;3.42;;;20.50;99.90;;;;;;5134226;27;20172;-54
2022/06/29 07:40:51;;;;;;;5.07;3.20;;;20.50;99.90;;;;;;5134530;27;20595;-54
2022/06/29 07:43:17;;;;;;;8.57;3.45;;;20.70;99.90;;;;;;5135454;27;20204;-54
2022/06/29 07:45:43;;;;;;;8.45;3.42;;;20.80;99.90;;;;;;5154930;27;20163;-54
2022/06/29 07:48:09;;;;;;;3.75;3.08;;;20.90;99.90;;;;;;5154866;27;20647;-54
2022/06/29 07:50:35;;;;;;;5.20;2.95;;;21.00;99.90;;;;;;5155073;27;20565;-55
2022/06/29 07:53:00;;;;;;;4.28;2.78;;;21.00;99.90;;;;;;5155143;27;20220;-54
2022/06/29 07:55:26;;;;;;;5.13;3.22;;;21.10;99.90;;;;;;5155329;27;20163;-54
2022/06/29 07:57:52;;;;;;;5.18;2.90;;;21.10;99.90;;;;;;5155566;27;20211;-55
2022/06/29 08:00:18;;;;;;;10.77;3.55;;;21.10;99.90;;;;;;5155475;27;20163;-54
2022/06/29 08:02:44;;;;;;;8.20;3.05;;;21.20;99.90;;;;;;5155732;27;20210;-55
2022/06/29 08:05:09;;;;;;;14.05;4.35;;;21.30;99.90;;;;;;5155062;27;20627;-54
2022/06/29 08:07:35;;;;;;;8.95;3.28;;;21.30;99.90;;;;;;5154876;27;20168;-54
2022/06/29 08:10:02;;;;;;;4.88;3.05;;;21.30;99.90;;;;;;5155105;27;20260;-54
2022/06/29 08:12:28;;;;;;;6.32;3.42;;;21.20;99.90;;;;;;5154637;27;20167;-54
2022/06/29 08:14:53;;;;;;;8.57;3.33;;;21.10;99.90;;;;;;5154964;27;20167;-54
2022/06/29 08:17:19;;;;;;;7.65;3.10;;;21.20;99.90;;;;;;5155242;27;20250;-54
2022/06/29 08:19:45;;;;;;;9.23;3.53;;;21.30;99.90;;;;;;5155013;27;20163;-54
2022/06/29 08:22:11;;;;;;;5.70;3.65;;;21.30;99.90;;;;;;5154864;27;20219;-54
2022/06/29 08:24:37;;;;;;;6.90;3.15;;;21.30;99.90;;;;;;5154593;27;20784;-54
2022/06/29 08:27:03;;;;;;;6.97;3.67;;;21.30;99.90;;;;;;5154975;27;20187;-54
2022/06/29 08:29:29;;;;;;;12.35;3.53;;;21.40;99.90;;;;;;5154824;27;20171;-54
2022/06/29 08:31:54;;;;;;;4.57;3.33;;;21.50;99.90;;;;;;5154573;27;20163;-54
2022/06/29 08:34:29;;;;;;;5.15;3.10;;;21.40;99.90;;;;;;5154896;27;20167;-54
2022/06/29 08:36:55;;;;;;;5.20;3.20;;;21.40;99.90;;;;;;5154887;27;20163;-54
2022/06/29 08:39:21;;;;;;;6.78;3.65;;;21.50;99.90;;;;;;5154876;27;20530;-54
2022/06/29 08:41:47;;;;;;;3.53;2.90;;;21.60;99.90;;;;;;5154401;27;20168;-54
2022/06/29 08:44:13;;;;;;;8.70;3.20;;;21.50;99.90;;;;;;5154227;27;20210;-54
2022/06/29 08:46:39;;;;;;;7.03;3.13;;;21.50;99.90;;;;;;5154464;27;20220;-54
2022/06/29 08:49:04;;;;;;;7.38;3.80;;;21.50;99.90;;;;;;5154435;27;20257;-54
2022/06/29 08:51:34;;;;;;;7.35;4.38;;;21.50;99.90;;;;;;5154369;27;20174;-54
2022/06/29 08:54:04;;;;;;;5.40;3.75;;;21.60;99.90;;;;;;5154823;27;20250;-54
2022/06/29 08:56:30;;;;;;;6.95;4.03;;;21.50;99.90;;;;;;5154262;27;20174;-54
2022/06/29 08:58:57;;;;;;;7.50;4.05;;;21.40;99.90;;;;;;5154226;27;20163;-54
2022/06/29 09:01:23;;;;;;;5.95;3.92;;;21.40;99.90;;;;;;5154287;27;20190;-54
2022/06/29 09:03:49;;;;;;;7.80;4.13;;;21.40;99.90;;;;;;5154589;27;20532;-54
2022/06/29 09:06:14;;;;;;;7.72;4.55;;;21.40;99.90;;;;;;5154039;27;20628;-54
2022/06/29 09:08:40;;;;;;;8.13;4.85;;;21.30;99.90;;;;;;5153945;27;20266;-54
2022/06/29 09:11:31;;;;;;;10.07;5.03;;;21.40;99.90;;;;;;5135791;27;20250;-55
2022/06/29 09:14:12;;;;;;;6.95;5.40;;;21.50;99.90;;;;;;5153958;27;20159;-54
2022/06/29 09:17:03;;;;;;;8.15;5.35;;;21.50;99.90;;;;;;5153884;27;20558;-54
2022/06/29 09:19:46;;;;;;;8.32;5.32;;;21.60;99.90;;;;;;5153900;27;20254;-53
2022/06/29 09:22:12;;;;;;;9.15;5.95;;;21.60;99.90;;;;;;5153674;27;20648;-53
2022/06/29 09:24:37;;;;;;;8.93;5.45;;;21.70;99.90;;;;;;5153464;27;20250;-53
2022/06/29 09:27:05;;;;;;;19.75;6.22;;;21.70;99.90;;;;;;5153606;27;20636;-55
2022/06/29 09:29:33;;;;;;;13.02;5.53;;;21.70;99.90;;;;;;5135179;27;20623;-54
2022/06/29 09:32:01;;;;;;;8.35;5.20;;;21.80;99.90;;;;;;5153573;27;20181;-54
2022/06/29 09:34:44;;;;;;;11.40;5.05;;;21.70;99.90;;;;;;5153613;27;20536;-54
2022/06/29 09:37:17;;;;;;;9.90;4.18;;;21.90;99.90;;;;;;5153472;27;20449;-54
2022/06/29 09:39:51;;;;;;;9.13;4.68;;;22.00;99.90;;;;;;5153400;27;20706;-53
2022/06/29 09:42:21;;;;;;;9.27;4.18;;;22.20;99.90;;;;;;5152616;27;20167;-54
2022/06/29 09:44:48;;;;;;;9.40;4.35;;;22.40;99.90;;;;;;5153270;27;20190;-54
2022/06/29 09:47:19;;;;;;;9.10;3.65;;;22.60;99.90;;;;;;5153148;27;20185;-54
2022/06/29 09:49:51;;;;;;;7.75;4.13;;;22.60;99.90;;;;;;5153166;27;20159;-54
2022/06/29 09:52:19;;;;;;;8.05;4.18;;;22.60;99.90;;;;;;5153405;27;20163;-54
2022/06/29 09:54:57;;;;;;;11.80;4.35;;;26.60;99.90;;;;;;5152980;27;20197;-54
2022/06/29 09:57:27;;;;;;;12.98;4.25;;;23.00;99.90;;;;;;5153221;27;20240;-54
2022/06/29 10:02:44;;;;;;;7.90;4.28;;;23.20;99.90;;;;;;5153104;27;20259;-54
2022/06/29 10:05:18;;;;;;;6.00;3.88;;;23.50;99.90;;;;;;5153052;27;20175;-53
2022/06/29 10:07:46;;;;;;;9.25;4.35;;;23.70;99.90;;;;;;5153070;27;20159;-54
2022/06/29 10:10:15;;;;;;;8.65;4.10;;;23.80;99.90;;;;;;5152796;27;20159;-54
2022/06/29 10:13:41;;;;;;;10.30;3.72;;;23.90;99.90;;;;;;5134186;27;20664;-54
2022/06/29 10:16:27;;;;;;;7.78;3.95;;;23.70;99.90;;;;;;5152516;27;20170;-54
2022/06/29 10:19:24;;;;;;;6.85;4.03;;;23.80;99.90;;;;;;5152637;27;20167;-54
2022/06/29 10:21:50;;;;;;;5.32;3.38;;;23.70;99.90;;;;;;5152436;27;20530;-54
2022/06/29 10:24:17;;;;;;;8.00;3.65;;;23.70;99.90;;;;;;5152437;27;20233;-54
2022/06/29 10:26:45;;;;;;;6.65;3.45;;;23.60;99.90;;;;;;5152516;27;20651;-54
2022/06/29 10:29:23;;;;;;;5.32;3.03;;;23.70;99.90;;;;;;5152691;27;20575;-54
2022/06/29 10:31:54;;;;;;;7.70;3.55;;;23.90;99.90;;;;;;5152738;27;20170;-54
2022/06/29 10:34:32;;;;;;;11.77;4.20;;;24.10;99.90;;;;;;5152920;27;20262;-55
2022/06/29 10:36:58;;;;;;;8.75;4.10;;;24.20;99.90;;;;;;5152493;27;20246;-54
2022/06/29 10:39:23;;;;;;;7.90;3.85;;;24.30;99.90;;;;;;5152375;27;20292;-54
2022/06/29 10:45:01;;;;;;;7.65;3.47;;;24.90;99.90;;;;;;5152351;27;20244;-54
2022/06/29 10:47:27;;;;;;;5.28;3.85;;;25.40;99.90;;;;;;5152297;27;20174;-54
2022/06/29 10:50:23;;;;;;;7.25;3.90;;;25.60;99.90;;;;;;5152408;27;20166;-54
2022/06/29 10:52:57;;;;;;;9.95;4.13;;;25.70;99.90;;;;;;5150923;27;20202;-54
2022/06/29 10:55:25;;;;;;;11.63;3.90;;;25.80;99.90;;;;;;5155614;27;20162;-54
2022/06/29 10:57:52;;;;;;;13.05;3.33;;;25.90;99.90;;;;;;5156843;27;20166;-54
2022/06/29 11:00:29;;;;;;;6.28;3.17;;;26.00;99.90;;;;;;5156404;27;20203;-54
2022/06/29 11:02:55;;;;;;;10.45;2.63;;;26.30;99.90;;;;;;5156315;27;20620;-54
2022/06/29 11:05:21;;;;;;;5.22;2.92;;;26.30;99.90;;;;;;5156707;27;20194;-54
2022/06/29 11:13:26;;;;;;;5.22;2.30;;;26.60;99.90;;;;;;5156726;27;20261;-54
2022/06/29 11:15:54;;;;;;;4.57;2.38;;;26.00;99.90;;;;;;5137931;27;20166;-54
2022/06/29 11:18:30;;;;;;;3.80;2.10;;;27.00;99.90;;;;;;5156266;27;20170;-54
2022/06/29 11:21:02;;;;;;;7.57;2.60;;;27.40;99.90;;;;;;5155937;27;20177;-54
2022/06/29 11:23:30;;;;;;;4.88;2.53;;;27.60;99.90;;;;;;5155743;27;20209;-54
2022/06/29 11:25:56;;;;;;;5.32;2.63;;;27.20;99.90;;;;;;5155628;27;20237;-54
2022/06/29 11:28:27;;;;;;;4.22;2.10;;;27.60;99.90;;;;;;5156155;27;20167;-54
2022/06/29 11:31:05;;;;;;;4.63;2.40;;;27.80;99.90;;;;;;5137168;27;20198;-54
2022/06/29 11:33:33;;;;;;;3.13;2.17;;;28.00;99.90;;;;;;5155893;27;20176;-55
2022/06/29 11:36:11;;;;;;;7.80;2.70;;;27.90;99.90;;;;;;5137368;27;20541;-54
2022/06/29 11:38:47;;;;;;;9.82;2.13;;;27.90;99.90;;;;;;5155725;27;20158;-54
2022/06/29 11:41:24;;;;;;;6.13;2.22;;;27.70;99.90;;;;;;5155807;27;20156;-54
2022/06/29 11:44:00;;;;;;;3.95;2.10;;;27.90;99.90;;;;;;5136648;27;20218;-54
2022/06/29 11:46:27;;;;;;;10.45;2.53;;;27.70;99.90;;;;;;5155897;27;20525;-54
2022/06/29 11:51:56;;;;;;;23.92;3.40;;;28.10;99.90;;;;;;5155730;27;20173;-55
2022/06/29 11:54:36;;;;;;;6.80;2.25;;;28.00;99.90;;;;;;5155927;27;20234;-55
2022/06/29 11:57:12;;;;;;;5.25;2.50;;;27.70;99.90;;;;;;5155773;27;20215;-55
2022/06/29 11:59:39;;;;;;;4.65;2.20;;;27.50;99.90;;;;;;5155212;27;20167;-54
2022/06/29 12:02:05;;;;;;;8.63;2.50;;;27.60;99.90;;;;;;5155459;27;20207;-54
2022/06/29 12:04:33;;;;;;;4.55;2.63;;;27.80;99.90;;;;;;5136543;27;20293;-54
2022/06/29 12:07:04;;;;;;;2.70;2.33;;;27.90;99.90;;;;;;5154922;27;20158;-54
2022/06/29 12:09:30;;;;;;;3.70;2.38;;;28.00;99.90;;;;;;5155709;27;20163;-54
2022/06/29 12:11:56;;;;;;;2.35;2.15;;;28.00;99.90;;;;;;5155002;27;20170;-55
2022/06/29 12:14:22;;;;;;;6.07;2.58;;;27.80;99.90;;;;;;5153622;27;20174;-54
2022/06/29 12:16:47;;;;;;;5.32;2.08;;;27.90;99.90;;;;;;5154821;27;20159;-55
2022/06/29 12:19:13;;;;;;;3.63;2.30;;;27.80;97.40;;;;;;5155006;27;20166;-55
2022/06/29 12:21:38;;;;;;;2.75;2.47;;;27.70;97.60;;;;;;5154848;27;20151;-54
2022/06/29 12:24:04;;;;;;;3.90;2.65;;;27.70;99.60;;;;;;5154710;27;20218;-54
2022/06/29 12:26:30;;;;;;;4.22;2.55;;;28.00;99.90;;;;;;5154994;27;20211;-54
2022/06/29 12:28:56;;;;;;;8.55;2.35;;;28.20;99.90;;;;;;5154776;27;20518;-54
2022/06/29 12:31:21;;;;;;;5.93;2.50;;;28.50;99.90;;;;;;5155345;27;20173;-54
2022/06/29 12:33:47;;;;;;;5.43;2.22;;;28.30;99.90;;;;;;5154652;27;20525;-54
2022/06/29 12:36:12;;;;;;;6.82;2.42;;;28.50;99.90;;;;;;5154607;27;20208;-55
2022/06/29 12:38:38;;;;;;;10.10;2.92;;;28.60;99.40;;;;;;5154548;27;20163;-54
2022/06/29 12:41:04;;;;;;;5.30;2.75;;;28.70;99.90;;;;;;5154483;27;20658;-55
2022/06/29 12:43:29;;;;;;;7.80;2.47;;;28.60;98.30;;;;;;5135843;27;20559;-54
2022/06/29 12:45:55;;;;;;;6.97;2.78;;;28.90;99.70;;;;;;5154495;27;20167;-54
2022/06/29 12:48:21;;;;;;;9.25;3.25;;;28.70;99.90;;;;;;5154876;27;20178;-54
2022/06/29 12:50:47;;;;;;;4.43;2.47;;;28.60;99.90;;;;;;5154546;27;20615;-54
2022/06/29 12:53:12;;;;;;;6.13;2.67;;;28.60;96.60;;;;;;5154623;27;21243;-54
2022/06/29 12:55:38;;;;;;;8.23;3.05;;;28.70;99.90;;;;;;5135610;27;20171;-54
2022/06/29 12:58:04;;;;;;;6.22;2.67;;;28.70;99.10;;;;;;5154255;27;20182;-54
2022/06/29 13:00:29;;;;;;;7.03;2.53;;;28.70;99.90;;;;;;5154413;27;20171;-54
2022/06/29 13:02:55;;;;;;;7.15;3.05;;;28.50;97.50;;;;;;5154022;27;20646;-53
2022/06/29 13:05:21;;;;;;;13.48;2.80;;;28.90;97.00;;;;;;5154233;27;20186;-53
2022/06/29 13:07:47;;;;;;;6.63;3.10;;;29.00;99.90;;;;;;5153951;27;20495;-54
2022/06/29 13:10:13;;;;;;;2.83;2.50;;;29.00;98.70;;;;;;5153821;27;20620;-54